createdAt,value
2023-10-07T00:01:18.362Z,62.68
2023-10-07T00:03:45.707Z,62.69
2023-10-07T00:06:14.932Z,62.67
2023-10-07T00:08:42.645Z,62.63
2023-10-07T00:11:18.853Z,62.73
2023-10-07T00:13:49.548Z,62.80
2023-10-07T00:16:18.687Z,62.84
2023-10-07T00:18:46.923Z,62.89
2023-10-07T00:21:25.161Z,62.94
2023-10-07T00:23:54.478Z,62.92
2023-10-07T00:26:21.765Z,63.05
2023-10-07T00:28:56.098Z,63.09
2023-10-07T00:31:29.455Z,63.11
2023-10-07T00:34:19.512Z,63.06
2023-10-07T00:36:49.634Z,63.04
2023-10-07T00:39:22.683Z,63.02
2023-10-07T00:41:55.590Z,63.00
2023-10-07T00:44:33.085Z,63.01
2023-10-07T00:47:04.847Z,63.08
2023-10-07T00:49:57.414Z,63.13
2023-10-07T00:52:26.550Z,63.06
2023-10-07T00:55:10.458Z,63.14
2023-10-07T00:57:38.798Z,63.10
2023-10-07T01:00:24.546Z,63.16
2023-10-07T01:02:58.333Z,63.23
2023-10-07T01:05:28.694Z,63.15
2023-10-07T01:07:56.913Z,63.11
2023-10-07T01:10:28.929Z,63.10
2023-10-07T01:13:02.376Z,63.15
2023-10-07T01:15:31.566Z,63.09
2023-10-07T01:18:05.571Z,63.16
2023-10-07T01:20:39.428Z,63.20
2023-10-07T01:23:08.594Z,63.26
2023-10-07T01:25:45.307Z,63.19
2023-10-07T01:28:16.648Z,63.23
2023-10-07T01:31:05.133Z,63.21
2023-10-07T01:33:40.949Z,63.29
2023-10-07T01:36:17.677Z,63.26
2023-10-07T01:38:46.408Z,63.21
2023-10-07T01:41:36.382Z,63.31
2023-10-07T01:44:06.909Z,63.26
2023-10-07T01:46:36.235Z,63.23
2023-10-07T01:49:13.938Z,63.29
2023-10-07T01:51:50.066Z,63.29
2023-10-07T01:54:17.022Z,63.25
2023-10-07T01:56:44.260Z,63.32
2023-10-07T01:59:17.437Z,63.36
2023-10-07T02:02:07.686Z,63.35
2023-10-07T02:04:35.722Z,63.38
2023-10-07T02:07:04.149Z,63.35
2023-10-07T02:09:36.721Z,63.21
2023-10-07T02:12:10.567Z,63.24
2023-10-07T02:14:38.489Z,63.33
2023-10-07T02:17:08.299Z,63.26
2023-10-07T02:19:35.294Z,63.29
2023-10-07T02:22:05.109Z,63.33
2023-10-07T02:24:33.540Z,63.28
2023-10-07T02:27:07.236Z,63.26
2023-10-07T02:29:35.845Z,63.34
2023-10-07T02:32:15.883Z,63.31
2023-10-07T02:34:56.934Z,63.29
2023-10-07T02:37:32.593Z,63.30
2023-10-07T02:40:20.595Z,63.31
2023-10-07T02:42:48.179Z,63.27
2023-10-07T02:45:29.962Z,63.23
2023-10-07T02:48:02.845Z,63.21
2023-10-07T02:50:32.742Z,63.25
2023-10-07T02:53:03.436Z,63.26
2023-10-07T02:55:39.599Z,63.23
2023-10-07T02:58:08.014Z,63.23
2023-10-07T03:00:38.163Z,63.22
2023-10-07T03:03:16.339Z,63.21
2023-10-07T03:05:47.237Z,63.22
2023-10-07T03:08:21.128Z,63.33
2023-10-07T03:11:12.344Z,63.26
2023-10-07T03:13:50.643Z,63.31
2023-10-07T03:16:24.833Z,63.34
2023-10-07T03:19:02.061Z,63.32
2023-10-07T03:21:42.191Z,63.30
2023-10-07T03:24:13.690Z,63.39
2023-10-07T03:26:44.161Z,63.43
2023-10-07T03:29:17.623Z,63.54
2023-10-07T03:31:47.323Z,63.64
2023-10-07T03:34:15.418Z,63.60
2023-10-07T03:37:02.297Z,63.61
2023-10-07T03:39:43.681Z,63.55
2023-10-07T03:42:11.217Z,63.54
2023-10-07T03:44:38.570Z,63.55
2023-10-07T03:47:11.627Z,63.56
2023-10-07T03:49:42.247Z,63.58
2023-10-07T03:52:13.693Z,63.59
2023-10-07T03:54:42.321Z,63.62
2023-10-07T03:57:10.651Z,63.64
2023-10-07T03:59:40.800Z,63.65
2023-10-07T04:02:27.830Z,63.60
2023-10-07T04:05:01.757Z,63.62
2023-10-07T04:07:32.463Z,63.65
2023-10-07T04:10:21.432Z,63.39
2023-10-07T04:12:49.457Z,63.24
2023-10-07T04:15:19.553Z,63.24
2023-10-07T04:17:47.018Z,63.27
2023-10-07T04:20:20.175Z,63.21
2023-10-07T04:23:02.400Z,63.22
2023-10-07T04:25:31.501Z,63.18
2023-10-07T04:27:59.518Z,63.12
2023-10-07T04:30:29.575Z,63.10
2023-10-07T04:33:02.649Z,63.07
2023-10-07T04:35:34.317Z,63.03
2023-10-07T04:38:11.327Z,62.94
2023-10-07T04:40:58.170Z,63.03
2023-10-07T04:43:37.319Z,63.06
2023-10-07T04:46:22.983Z,63.04
2023-10-07T04:48:57.624Z,63.02
2023-10-07T04:51:34.542Z,63.03
2023-10-07T04:54:02.845Z,63.04
2023-10-07T04:56:34.401Z,62.97
2023-10-07T04:59:01.801Z,62.88
2023-10-07T05:01:35.297Z,62.86
2023-10-07T05:04:06.798Z,62.85
2023-10-07T05:06:36.133Z,62.89
2023-10-07T05:09:19.940Z,62.87
2023-10-07T05:11:48.496Z,62.84
2023-10-07T05:14:19.005Z,62.84
2023-10-07T05:16:49.833Z,62.88
2023-10-07T05:19:22.903Z,62.83
2023-10-07T05:22:00.697Z,62.84
2023-10-07T05:24:31.588Z,62.93
2023-10-07T05:27:02.595Z,62.83
2023-10-07T05:29:30.461Z,62.86
2023-10-07T05:31:58.797Z,62.76
2023-10-07T05:34:31.939Z,62.67
2023-10-07T05:37:02.893Z,62.66
2023-10-07T05:39:29.958Z,62.59
2023-10-07T05:42:01.839Z,62.60
2023-10-07T05:44:31.328Z,62.56
2023-10-07T05:47:00.572Z,62.54
2023-10-07T05:49:27.867Z,62.50
2023-10-07T05:51:55.782Z,62.46
2023-10-07T05:54:23.012Z,62.42
2023-10-07T05:56:49.921Z,62.35
2023-10-07T05:59:17.258Z,62.33
2023-10-07T06:01:44.734Z,62.32
2023-10-07T06:04:13.486Z,62.31
2023-10-07T06:06:43.695Z,62.33
2023-10-07T06:09:15.575Z,62.27
2023-10-07T06:11:45.088Z,62.22
2023-10-07T06:14:12.972Z,62.16
2023-10-07T06:16:43.996Z,62.11
2023-10-07T06:19:14.581Z,62.13
2023-10-07T06:21:57.663Z,62.11
2023-10-07T06:24:25.228Z,62.00
2023-10-07T06:26:55.413Z,61.95
2023-10-07T06:29:22.750Z,61.84
2023-10-07T06:31:57.202Z,61.83
2023-10-07T06:34:27.456Z,61.81
2023-10-07T06:36:55.790Z,61.72
2023-10-07T06:39:28.864Z,61.74
2023-10-07T06:41:59.796Z,61.73
2023-10-07T06:44:27.208Z,61.68
2023-10-07T06:46:57.944Z,61.64
2023-10-07T06:49:25.101Z,61.64
2023-10-07T06:51:58.066Z,61.63
2023-10-07T06:54:33.256Z,61.58
2023-10-07T06:57:03.072Z,61.58
2023-10-07T06:59:30.887Z,61.57
2023-10-07T07:02:06.670Z,61.50
2023-10-07T07:04:36.977Z,61.46
2023-10-07T07:07:17.522Z,61.56
2023-10-07T07:09:50.956Z,61.49
2023-10-07T07:12:23.542Z,61.44
2023-10-07T07:15:06.157Z,61.42
2023-10-07T07:17:37.419Z,61.45
2023-10-07T07:20:13.992Z,61.46
2023-10-07T07:22:44.104Z,61.48
2023-10-07T07:25:19.361Z,61.52
2023-10-07T07:27:47.234Z,61.54
2023-10-07T07:30:21.131Z,61.60
2023-10-07T07:32:57.068Z,61.62
2023-10-07T07:35:39.950Z,61.62
2023-10-07T07:38:28.260Z,61.63
2023-10-07T07:41:10.551Z,61.68
2023-10-07T07:43:39.940Z,61.77
2023-10-07T07:46:30.742Z,61.88
2023-10-07T07:49:08.420Z,61.90
2023-10-07T07:51:39.512Z,61.98
2023-10-07T07:54:10.215Z,62.09
2023-10-07T07:56:38.586Z,62.17
2023-10-07T07:59:14.783Z,62.26
2023-10-07T08:01:45.968Z,62.39
2023-10-07T08:04:34.666Z,62.39
2023-10-07T08:07:07.473Z,62.51
2023-10-07T08:09:38.371Z,62.53
2023-10-07T08:12:10.872Z,62.54
2023-10-07T08:14:42.202Z,62.59
2023-10-07T08:17:09.797Z,62.78
2023-10-07T08:19:42.386Z,62.81
2023-10-07T08:22:19.874Z,62.97
2023-10-07T08:24:47.430Z,63.18
2023-10-07T08:27:34.883Z,63.30
2023-10-07T08:30:11.321Z,63.30
2023-10-07T08:32:44.489Z,63.34
2023-10-07T08:35:20.817Z,63.29
2023-10-07T08:37:51.886Z,63.26
2023-10-07T08:40:30.461Z,63.27
2023-10-07T08:42:59.940Z,63.34
2023-10-07T08:45:32.442Z,63.38
2023-10-07T08:48:10.613Z,63.36
2023-10-07T08:50:59.126Z,63.40
2023-10-07T08:53:28.226Z,63.56
2023-10-07T08:55:58.552Z,63.73
2023-10-07T08:58:29.211Z,63.89
2023-10-07T09:00:57.524Z,63.91
2023-10-07T09:03:30.346Z,63.90
2023-10-07T09:06:07.488Z,63.92
2023-10-07T09:08:35.329Z,63.89
2023-10-07T09:11:09.225Z,63.81
2023-10-07T09:13:39.957Z,63.79
2023-10-07T09:16:08.584Z,63.84
2023-10-07T09:18:42.063Z,63.66
2023-10-07T09:21:20.563Z,63.65
2023-10-07T09:23:53.533Z,63.45
2023-10-07T09:26:23.747Z,63.29
2023-10-07T09:29:00.047Z,63.18
2023-10-07T09:31:28.422Z,63.01
2023-10-07T09:34:11.295Z,62.94
2023-10-07T09:36:41.715Z,62.76
2023-10-07T09:39:34.988Z,62.62
2023-10-07T09:42:26.606Z,62.51
2023-10-07T09:45:17.474Z,62.31
2023-10-07T09:47:48.693Z,62.35
2023-10-07T09:50:25.518Z,62.18
2023-10-07T09:53:22.258Z,62.09
2023-10-07T09:55:58.483Z,61.89
2023-10-07T09:58:53.995Z,61.65
2023-10-07T10:01:40.003Z,61.47
2023-10-07T10:04:30.771Z,61.41
2023-10-07T10:07:15.117Z,61.30
2023-10-07T10:10:00.554Z,61.23
2023-10-07T10:12:50.139Z,61.16
2023-10-07T10:15:21.180Z,61.08
2023-10-07T10:17:57.384Z,61.04
2023-10-07T10:20:43.767Z,60.88
2023-10-07T10:23:20.723Z,61.12
2023-10-07T10:25:54.046Z,61.14
2023-10-07T10:28:30.369Z,61.06
2023-10-07T10:30:58.198Z,61.06
2023-10-07T10:33:27.409Z,61.06
2023-10-07T10:35:59.420Z,61.02
2023-10-07T10:38:42.246Z,61.00
2023-10-07T10:41:12.911Z,60.91
2023-10-07T10:43:40.332Z,60.85
2023-10-07T10:46:09.245Z,60.88
2023-10-07T10:48:38.012Z,60.84
2023-10-07T10:51:07.013Z,60.79
2023-10-07T10:53:36.029Z,60.77
2023-10-07T10:56:04.469Z,60.72
2023-10-07T10:58:49.970Z,60.67
2023-10-07T11:01:17.228Z,60.61
2023-10-07T11:03:50.431Z,60.53
2023-10-07T11:06:20.576Z,60.23
2023-10-07T11:08:47.822Z,60.13
2023-10-07T11:11:16.142Z,60.07
2023-10-07T11:13:45.392Z,60.00
2023-10-07T11:16:13.080Z,59.90
2023-10-07T11:18:44.359Z,59.82
2023-10-07T11:21:13.187Z,59.74
2023-10-07T11:23:56.024Z,59.65
2023-10-07T11:26:27.468Z,59.57
2023-10-07T11:28:57.619Z,59.49
2023-10-07T11:31:32.288Z,59.41
2023-10-07T11:34:00.890Z,59.35
2023-10-07T11:36:28.536Z,59.29
2023-10-07T11:38:57.749Z,59.21
2023-10-07T11:41:24.713Z,59.15
2023-10-07T11:43:53.782Z,59.09
2023-10-07T11:46:21.677Z,59.05
2023-10-07T11:48:49.022Z,59.00
2023-10-07T11:51:16.817Z,58.92
2023-10-07T11:53:44.072Z,58.87
2023-10-07T11:56:15.876Z,58.82
2023-10-07T11:58:47.727Z,58.74
2023-10-07T12:01:15.070Z,58.70
2023-10-07T12:03:44.866Z,58.65
2023-10-07T12:06:13.359Z,58.59
2023-10-07T12:08:40.915Z,58.52
2023-10-07T12:11:09.542Z,58.46
2023-10-07T12:13:36.755Z,58.39
2023-10-07T12:16:06.272Z,58.29
2023-10-07T12:18:34.008Z,58.21
2023-10-07T12:21:13.569Z,58.15
2023-10-07T12:23:45.819Z,58.06
2023-10-07T12:26:17.910Z,57.95
2023-10-07T12:28:50.150Z,57.89
2023-10-07T12:31:17.537Z,57.79
2023-10-07T12:33:44.713Z,57.72
2023-10-07T12:36:16.712Z,57.65
2023-10-07T12:38:44.445Z,57.57
2023-10-07T12:41:14.528Z,57.53
2023-10-07T12:43:42.079Z,57.49
2023-10-07T12:46:11.377Z,57.46
2023-10-07T12:48:41.791Z,57.38
2023-10-07T12:51:10.001Z,57.31
2023-10-07T12:53:37.734Z,57.22
2023-10-07T12:56:20.623Z,57.18
2023-10-07T12:58:48.416Z,57.10
2023-10-07T13:01:16.628Z,56.99
2023-10-07T13:03:45.198Z,56.95
2023-10-07T13:06:16.630Z,56.82
2023-10-07T13:08:45.459Z,56.79
2023-10-07T13:11:15.578Z,56.73
2023-10-07T13:13:46.839Z,56.69
2023-10-07T13:16:18.963Z,56.61
2023-10-07T13:18:46.512Z,56.56
2023-10-07T13:21:20.422Z,56.53
2023-10-07T13:23:48.390Z,56.52
2023-10-07T13:26:16.680Z,56.48
2023-10-07T13:29:04.734Z,56.47
2023-10-07T13:31:32.301Z,56.49
2023-10-07T13:33:59.530Z,56.46
2023-10-07T13:36:28.146Z,56.45
2023-10-07T13:38:57.814Z,56.40
2023-10-07T13:41:24.906Z,56.40
2023-10-07T13:43:53.481Z,56.37
2023-10-07T13:46:20.904Z,56.40
2023-10-07T13:48:48.170Z,56.41
2023-10-07T13:51:17.003Z,56.41
2023-10-07T13:54:13.307Z,56.54
2023-10-07T13:56:49.663Z,56.71
2023-10-07T13:59:17.581Z,56.75
2023-10-07T14:01:47.820Z,56.78
2023-10-07T14:04:17.139Z,56.80
2023-10-07T14:06:44.443Z,56.83
2023-10-07T14:09:17.697Z,56.88
2023-10-07T14:11:47.687Z,56.94
2023-10-07T14:14:14.800Z,56.98
2023-10-07T14:16:42.106Z,57.03
2023-10-07T14:19:09.230Z,57.09
2023-10-07T14:21:36.919Z,57.16
2023-10-07T14:24:07.051Z,57.23
2023-10-07T14:26:36.727Z,57.29
2023-10-07T14:29:07.854Z,57.34
2023-10-07T14:31:38.182Z,57.36
2023-10-07T14:34:09.284Z,57.42
2023-10-07T14:36:36.880Z,57.50
2023-10-07T14:39:04.370Z,57.57
2023-10-07T14:41:32.010Z,57.63
2023-10-07T14:43:59.803Z,57.66
2023-10-07T14:46:27.179Z,57.70
2023-10-07T14:48:55.091Z,57.73
2023-10-07T14:51:22.295Z,57.80
2023-10-07T14:53:49.856Z,57.84
2023-10-07T14:56:23.224Z,57.91
2023-10-07T14:58:51.143Z,57.95
2023-10-07T15:01:23.536Z,58.00
2023-10-07T15:03:52.103Z,57.95
2023-10-07T15:06:19.300Z,57.88
2023-10-07T15:08:46.617Z,57.92
2023-10-07T15:11:21.557Z,57.98
2023-10-07T15:13:52.950Z,58.06
2023-10-07T15:16:22.526Z,58.13
2023-10-07T15:18:50.785Z,58.21
2023-10-07T15:21:19.152Z,58.29
2023-10-07T15:23:46.879Z,58.37
2023-10-07T15:26:19.950Z,58.46
2023-10-07T15:28:49.555Z,58.56
2023-10-07T15:31:24.915Z,58.68
2023-10-07T15:34:05.359Z,58.75
2023-10-07T15:36:32.627Z,58.81
2023-10-07T15:38:59.853Z,58.86
2023-10-07T15:41:27.186Z,58.94
2023-10-07T15:43:54.317Z,59.00
2023-10-07T15:46:22.060Z,59.09
2023-10-07T15:48:49.235Z,59.16
2023-10-07T15:51:16.869Z,59.25
2023-10-07T15:53:44.953Z,59.33
2023-10-07T15:56:14.276Z,59.45
2023-10-07T15:58:43.158Z,59.58
2023-10-07T16:01:12.438Z,59.64
2023-10-07T16:03:40.647Z,59.58
2023-10-07T16:06:09.302Z,59.61
2023-10-07T16:08:38.639Z,59.66
2023-10-07T16:11:16.059Z,59.72
2023-10-07T16:13:44.748Z,59.74
2023-10-07T16:16:11.827Z,59.79
2023-10-07T16:18:41.266Z,59.85
2023-10-07T16:21:16.190Z,59.89
2023-10-07T16:23:44.105Z,59.87
2023-10-07T16:26:16.182Z,59.86
2023-10-07T16:28:45.635Z,59.85
2023-10-07T16:31:16.795Z,59.85
2023-10-07T16:33:44.041Z,59.85
2023-10-07T16:36:11.440Z,59.82
2023-10-07T16:38:42.461Z,59.83
2023-10-07T16:41:14.898Z,59.81
2023-10-07T16:43:44.577Z,59.79
2023-10-07T16:46:12.276Z,59.78
2023-10-07T16:48:41.025Z,59.74
2023-10-07T16:51:13.431Z,59.78
2023-10-07T16:53:42.344Z,59.70
2023-10-07T16:56:19.090Z,59.63
2023-10-07T16:58:46.634Z,59.59
2023-10-07T17:01:14.968Z,59.55
2023-10-07T17:03:42.519Z,59.41
2023-10-07T17:06:10.362Z,59.39
2023-10-07T17:08:38.770Z,59.36
2023-10-07T17:11:11.378Z,59.34
2023-10-07T17:13:42.260Z,59.31
2023-10-07T17:16:09.325Z,59.27
2023-10-07T17:18:37.355Z,59.26
2023-10-07T17:21:10.237Z,59.28
2023-10-07T17:23:39.815Z,59.34
2023-10-07T17:26:08.797Z,59.34
2023-10-07T17:28:37.261Z,59.34
2023-10-07T17:31:10.255Z,59.41
2023-10-07T17:33:38.362Z,59.41
2023-10-07T17:36:05.963Z,59.44
2023-10-07T17:38:34.772Z,59.47
2023-10-07T17:41:02.706Z,59.49
2023-10-07T17:43:32.765Z,59.56
2023-10-07T17:46:01.613Z,59.58
2023-10-07T17:48:30.692Z,59.56
2023-10-07T17:50:59.490Z,59.60
2023-10-07T17:53:27.778Z,59.62
2023-10-07T17:55:55.598Z,59.64
2023-10-07T17:58:22.952Z,59.66
2023-10-07T18:00:51.287Z,59.68
2023-10-07T18:03:24.475Z,59.69
2023-10-07T18:05:51.992Z,59.72
2023-10-07T18:08:20.190Z,59.73
2023-10-07T18:10:47.584Z,59.75
2023-10-07T18:13:15.385Z,59.80
2023-10-07T18:15:44.176Z,59.80
2023-10-07T18:18:11.500Z,59.80
2023-10-07T18:20:38.701Z,59.81
2023-10-07T18:23:06.654Z,59.84
2023-10-07T18:25:34.446Z,59.84
2023-10-07T18:28:02.030Z,59.82
2023-10-07T18:30:30.239Z,59.82
2023-10-07T18:32:57.516Z,59.79
2023-10-07T18:35:29.381Z,59.79
2023-10-07T18:37:57.358Z,59.81
2023-10-07T18:40:26.035Z,59.83
2023-10-07T18:42:53.700Z,59.84
2023-10-07T18:45:21.088Z,59.85
2023-10-07T18:47:48.305Z,59.86
2023-10-07T18:50:17.610Z,59.83
2023-10-07T18:52:45.540Z,59.84
2023-10-07T18:55:13.417Z,59.85
2023-10-07T18:57:41.233Z,59.84
2023-10-07T19:00:10.991Z,59.86
2023-10-07T19:02:42.022Z,59.82
2023-10-07T19:05:17.498Z,59.79
2023-10-07T19:07:46.577Z,59.76
2023-10-07T19:10:14.536Z,59.76
2023-10-07T19:12:42.658Z,59.78
2023-10-07T19:15:11.777Z,59.80
2023-10-07T19:17:39.812Z,59.80
2023-10-07T19:20:08.678Z,59.81
2023-10-07T19:22:43.081Z,59.82
2023-10-07T19:25:12.574Z,59.81
2023-10-07T19:27:40.671Z,59.82
2023-10-07T19:30:11.846Z,59.83
2023-10-07T19:32:43.464Z,59.80
2023-10-07T19:35:11.868Z,59.78
2023-10-07T19:37:39.596Z,59.76
2023-10-07T19:40:08.073Z,59.75
2023-10-07T19:42:36.038Z,59.73
2023-10-07T19:45:03.350Z,59.74
2023-10-07T19:47:30.781Z,59.74
2023-10-07T19:49:58.459Z,59.77
2023-10-07T19:52:25.939Z,59.79
2023-10-07T19:54:53.954Z,59.82
2023-10-07T19:57:21.679Z,59.82
2023-10-07T19:59:53.367Z,59.80
2023-10-07T20:02:21.604Z,59.80
2023-10-07T20:04:49.337Z,59.82
2023-10-07T20:07:24.719Z,59.87
2023-10-07T20:09:53.140Z,59.87
2023-10-07T20:12:20.429Z,59.88
2023-10-07T20:14:55.960Z,59.85
2023-10-07T20:17:23.122Z,59.83
2023-10-07T20:19:50.406Z,59.83
2023-10-07T20:22:18.584Z,59.86
2023-10-07T20:24:46.056Z,59.83
2023-10-07T20:27:15.229Z,59.78
2023-10-07T20:29:42.970Z,59.77
2023-10-07T20:32:10.539Z,59.75
2023-10-07T20:34:37.875Z,59.70
2023-10-07T20:37:05.119Z,59.67
2023-10-07T20:39:32.817Z,59.65
2023-10-07T20:42:00.543Z,59.66
2023-10-07T20:44:28.109Z,59.62
2023-10-07T20:46:56.222Z,59.58
2023-10-07T20:49:23.556Z,59.55
2023-10-07T20:51:50.635Z,59.55
2023-10-07T20:54:17.492Z,59.51
2023-10-07T20:56:44.388Z,59.49
2023-10-07T20:59:12.148Z,59.46
2023-10-07T21:01:39.893Z,59.42
2023-10-07T21:04:07.466Z,59.42
2023-10-07T21:06:34.840Z,59.42
2023-10-07T21:09:02.043Z,59.43
2023-10-07T21:11:29.298Z,59.42
2023-10-07T21:13:59.516Z,59.43
2023-10-07T21:16:26.967Z,59.42
2023-10-07T21:18:55.724Z,59.38
2023-10-07T21:21:22.912Z,59.38
2023-10-07T21:23:49.906Z,59.37
2023-10-07T21:26:25.058Z,59.37
2023-10-07T21:28:55.646Z,59.39
2023-10-07T21:31:31.701Z,59.36
2023-10-07T21:33:59.355Z,59.39
2023-10-07T21:36:26.951Z,59.40
2023-10-07T21:38:54.005Z,59.39
2023-10-07T21:41:21.214Z,59.40
2023-10-07T21:43:48.780Z,59.42
2023-10-07T21:46:19.640Z,59.42
2023-10-07T21:48:47.878Z,59.41
2023-10-07T21:51:19.211Z,59.43
2023-10-07T21:53:46.847Z,59.48
2023-10-07T21:56:13.878Z,59.51
2023-10-07T21:58:41.092Z,59.56
2023-10-07T22:01:17.086Z,59.59
2023-10-07T22:03:45.588Z,59.61
2023-10-07T22:06:14.850Z,59.63
2023-10-07T22:08:43.299Z,59.68
2023-10-07T22:11:11.736Z,59.71
2023-10-07T22:13:41.894Z,59.70
2023-10-07T22:16:09.451Z,59.73
2023-10-07T22:18:37.347Z,59.71
2023-10-07T22:21:05.160Z,59.73
2023-10-07T22:23:34.696Z,59.72
2023-10-07T22:26:09.058Z,59.76
2023-10-07T22:28:36.833Z,59.77
2023-10-07T22:31:07.771Z,59.77
2023-10-07T22:33:36.502Z,59.76
2023-10-07T22:36:09.684Z,59.70
2023-10-07T22:38:40.997Z,59.59
2023-10-07T22:41:17.329Z,59.50
2023-10-07T22:43:45.290Z,59.48
2023-10-07T22:46:15.937Z,59.50
2023-10-07T22:48:47.549Z,59.54
2023-10-07T22:51:24.572Z,59.57
2023-10-07T22:54:02.603Z,59.55
2023-10-07T22:56:33.000Z,59.57
2023-10-07T22:59:06.773Z,59.58
2023-10-07T23:01:37.707Z,59.55
2023-10-07T23:04:16.223Z,59.56
2023-10-07T23:07:00.917Z,59.57
2023-10-07T23:09:38.409Z,59.61
2023-10-07T23:12:16.911Z,59.57
2023-10-07T23:14:46.450Z,59.64
2023-10-07T23:17:23.152Z,59.58
2023-10-07T23:19:51.505Z,59.59
2023-10-07T23:22:21.174Z,59.54
2023-10-07T23:25:08.692Z,59.53
2023-10-07T23:27:45.304Z,59.54
2023-10-07T23:30:27.288Z,59.57
2023-10-07T23:33:00.657Z,59.50
2023-10-07T23:35:33.383Z,59.48
2023-10-07T23:38:11.481Z,59.47
2023-10-07T23:40:39.080Z,59.41
2023-10-07T23:43:11.295Z,59.38
2023-10-07T23:45:44.387Z,59.28
2023-10-07T23:48:13.868Z,59.26
2023-10-07T23:50:43.839Z,59.17
2023-10-07T23:53:15.833Z,59.02
2023-10-07T23:55:44.764Z,58.69
2023-10-07T23:58:22.722Z,58.46
